Time;durP1;ratioP1;P1;durP2;ratioP2;P2;SDS_P1;SDS_P2;PMS_P1;PMS_P2;Temp;Humidity;BMP_temperature;BMP_pressure;BME280_temperature;BME280_humidity;BME280_pressure;Samples;Min_cycle;Max_cycle;Signal;HPM_P1;HPM_P2
2022/11/01 00:03:17;;;;;;;49.58;29.25;;;;;;;6.29;97.37;99296.98;4180458;83;21616;-84
2022/11/01 00:09:20;;;;;;;49.80;28.90;;;;;;;6.27;98.83;99286.20;4172230;83;21021;-83
2022/11/01 00:22:15;;;;;;;47.98;29.48;;;;;;;6.63;100.00;99299.80;4128305;85;21007;-83
2022/11/01 00:28:19;;;;;;;55.43;32.58;;;;;;;6.52;98.52;99287.78;4170970;83;20974;-83
2022/11/01 00:34:22;;;;;;;56.90;29.15;;;;;;;6.39;98.67;99278.84;4195727;83;21006;-83
2022/11/01 00:40:27;;;;;;;46.42;26.60;;;;;;;6.29;99.41;99280.67;4189590;83;21011;-83
2022/11/01 00:46:30;;;;;;;53.95;29.07;;;;;;;6.38;100.00;99277.82;4313659;81;21023;-83
2022/11/01 00:52:33;;;;;;;58.00;30.02;;;;;;;6.36;99.39;99279.52;4189819;83;22003;-83
2022/11/01 00:58:35;;;;;;;74.35;33.40;;;;;;;6.38;99.38;99276.46;4275063;81;21462;-83
2022/11/01 01:04:41;;;;;;;80.90;33.88;;;;;;;6.25;99.17;99268.87;4297690;81;22012;-83
2022/11/01 01:10:52;;;;;;;67.15;29.98;;;;;;;6.25;100.00;99266.70;4281837;81;21061;-84
2022/11/01 01:16:53;;;;;;;64.05;30.08;;;;;;;6.37;100.00;99272.16;4329804;81;21511;-83
2022/11/01 01:30:40;;;;;;;96.90;36.58;;;;;;;6.71;100.00;99256.72;4119278;86;21010;-83
2022/11/01 01:36:45;;;;;;;70.67;32.65;;;;;;;6.58;100.00;99246.98;4135951;83;21030;-83
2022/11/01 01:42:48;;;;;;;84.20;34.73;;;;;;;6.55;100.00;99237.34;4117065;84;21010;-84
2022/11/01 01:48:55;;;;;;;93.10;35.52;;;;;;;6.63;100.00;99233.70;4125185;84;21419;-84
2022/11/01 01:55:00;;;;;;;73.25;36.38;;;;;;;6.76;100.00;99236.64;4209866;83;21041;-84
2022/11/01 02:01:10;;;;;;;87.70;40.00;;;;;;;6.84;100.00;99228.35;4224129;84;20990;-83
2022/11/01 02:07:12;;;;;;;77.30;37.63;;;;;;;6.95;100.00;99232.17;4135975;84;21633;-83
2022/11/01 02:13:30;;;;;;;81.08;40.40;;;;;;;6.97;100.00;99233.96;4219235;83;21870;-84
2022/11/01 02:20:16;;;;;;;78.10;38.28;;;;;;;7.03;100.00;99223.05;4210643;83;21092;-84
2022/11/01 02:26:44;;;;;;;87.70;40.48;;;;;;;7.08;100.00;99228.84;4250356;82;21014;-84
2022/11/01 02:33:14;;;;;;;91.72;39.75;;;;;;;7.09;100.00;99237.22;4036064;86;21059;-84
2022/11/01 02:39:39;;;;;;;73.05;37.20;;;;;;;7.12;100.00;99217.47;3833666;90;21536;-84
2022/11/01 02:45:47;;;;;;;58.83;34.38;;;;;;;7.13;100.00;99228.02;4141565;81;21038;-84
2022/11/01 02:51:51;;;;;;;60.35;34.27;;;;;;;7.15;100.00;99218.14;4317168;81;21055;-83
2022/11/01 02:58:24;;;;;;;65.12;36.42;;;;;;;7.09;100.00;99224.41;4282686;81;20953;-83
2022/11/01 03:04:35;;;;;;;85.57;38.40;;;;;;;7.05;100.00;99233.03;4242265;82;21052;-84
2022/11/01 03:10:57;;;;;;;69.35;37.35;;;;;;;6.99;100.00;99230.34;4340452;81;20972;-83
2022/11/01 03:17:44;;;;;;;70.78;38.65;;;;;;;7.06;100.00;99232.47;4313672;80;20965;-84
2022/11/01 03:39:04;;;;;;;104.43;41.53;;;;;;;7.03;100.00;99218.20;4328553;81;20991;-84
2022/11/01 03:45:37;;;;;;;95.93;42.93;;;;;;;7.01;100.00;99218.55;4187608;83;21537;-85
2022/11/01 03:51:49;;;;;;;96.25;40.70;;;;;;;7.08;100.00;99218.73;4082963;85;20978;-84
2022/11/01 03:58:42;;;;;;;88.20;42.08;;;;;;;7.16;100.00;99218.35;4145356;85;21006;-84
2022/11/01 04:04:48;;;;;;;96.55;40.08;;;;;;;7.19;100.00;99216.30;4146513;83;21040;-84
2022/11/01 04:10:50;;;;;;;89.87;41.60;;;;;;;7.28;100.00;99214.23;4167198;84;21045;-84
2022/11/01 04:23:30;;;;;;;79.67;45.43;;;;;;;7.41;100.00;99208.93;4210002;84;21671;-85
2022/11/01 04:36:20;;;;;;;94.50;47.10;;;;;;;7.55;100.00;99203.30;4183097;82;21103;-84
2022/11/01 04:42:40;;;;;;;90.07;45.80;;;;;;;7.61;100.00;99197.80;4153271;83;21098;-84
2022/11/01 04:48:46;;;;;;;78.85;44.23;;;;;;;7.67;100.00;99203.21;4164252;83;21008;-84
2022/11/01 04:54:48;;;;;;;77.00;42.80;;;;;;;7.72;100.00;99202.19;4169013;83;21018;-84
2022/11/01 05:01:00;;;;;;;68.85;37.90;;;;;;;7.74;100.00;99194.43;4187441;85;21560;-84
2022/11/01 05:07:03;;;;;;;68.07;36.60;;;;;;;7.77;100.00;99189.08;4104974;83;21566;-84
2022/11/01 05:13:05;;;;;;;77.72;33.65;;;;;;;7.74;100.00;99184.89;4112209;83;21058;-85
2022/11/01 05:19:06;;;;;;;54.10;29.37;;;;;;;7.65;100.00;99192.45;4171204;83;21654;-85
2022/11/01 05:25:11;;;;;;;52.80;28.40;;;;;;;7.59;100.00;99200.11;4182118;83;21053;-84
2022/11/01 05:38:38;;;;;;;33.15;21.02;;;;;;;7.63;100.00;99194.17;4171164;83;21100;-84
2022/11/01 05:45:04;;;;;;;33.25;19.95;;;;;;;7.65;100.00;99178.27;4011347;85;21015;-84
2022/11/01 05:51:34;;;;;;;38.10;21.25;;;;;;;7.69;100.00;99183.22;4148804;85;21565;-85
2022/11/01 05:57:56;;;;;;;47.08;25.77;;;;;;;7.74;100.00;99180.25;4061254;88;21094;-85
2022/11/01 06:04:22;;;;;;;45.10;25.40;;;;;;;7.72;100.00;99172.98;4002083;89;21106;-85
2022/11/01 06:10:46;;;;;;;41.98;27.37;;;;;;;7.76;100.00;99182.62;4060632;88;21581;-85
2022/11/01 06:24:21;;;;;;;37.70;22.52;;;;;;;7.90;100.00;99202.05;4064139;88;20986;-85
2022/11/01 06:30:32;;;;;;;37.88;19.00;;;;;;;8.01;100.00;99192.20;4064717;88;22032;-85
2022/11/01 06:36:34;;;;;;;31.15;18.85;;;;;;;8.09;100.00;99206.22;4063593;85;21047;-85
2022/11/01 06:42:59;;;;;;;32.67;17.35;;;;;;;8.16;100.00;99199.55;4123744;83;21099;-85
2022/11/01 06:56:22;;;;;;;29.67;16.95;;;;;;;8.32;100.00;99218.66;4187808;83;21501;-85
2022/11/01 07:02:46;;;;;;;27.48;15.35;;;;;;;8.38;100.00;99216.67;4176388;83;21026;-85
2022/11/01 07:08:47;;;;;;;33.55;18.67;;;;;;;8.46;100.00;99222.51;4179241;83;21047;-85
2022/11/01 07:14:48;;;;;;;36.10;18.00;;;;;;;8.57;100.00;99205.80;4205643;83;21490;-85
2022/11/01 07:28:30;;;;;;;46.60;20.75;;;;;;;8.71;100.00;99191.11;4234486;84;21042;-86
2022/11/01 07:41:46;;;;;;;63.30;27.15;;;;;;;8.98;100.00;99210.60;4107150;83;21915;-85
2022/11/01 07:48:03;;;;;;;60.25;24.52;;;;;;;9.07;100.00;99194.78;4143357;84;21872;-85
2022/11/01 07:54:24;;;;;;;69.00;27.63;;;;;;;9.19;100.00;99185.06;4227645;84;21025;-85
2022/11/01 08:01:01;;;;;;;70.32;29.40;;;;;;;9.31;100.00;99178.10;4137806;84;21470;-85
2022/11/01 08:07:23;;;;;;;67.20;28.90;;;;;;;9.43;100.00;99185.33;4154819;84;21002;-85
2022/11/01 08:13:34;;;;;;;66.33;28.65;;;;;;;9.47;100.00;99188.93;4136986;84;21014;-85
2022/11/01 08:26:51;;;;;;;59.75;27.55;;;;;;;9.55;100.00;99205.08;4189701;82;20987;-85
2022/11/01 08:33:03;;;;;;;62.13;31.23;;;;;;;9.61;100.00;99193.85;4209409;83;21616;-85
2022/11/01 08:39:04;;;;;;;65.20;30.40;;;;;;;9.67;100.00;99200.59;4203526;83;21469;-84
2022/11/01 08:52:41;;;;;;;54.08;26.62;;;;;;;9.93;100.00;99176.06;4268916;83;20956;-85
2022/11/01 08:58:42;;;;;;;49.40;26.85;;;;;;;10.05;100.00;99180.77;4280352;82;20946;-84
2022/11/01 09:04:44;;;;;;;47.83;27.10;;;;;;;10.12;100.00;99186.36;4167723;84;21045;-84
2022/11/01 09:11:06;;;;;;;41.90;25.05;;;;;;;10.21;100.00;99190.99;4299902;81;20996;-85
2022/11/01 09:31:17;;;;;;;43.75;26.33;;;;;;;10.46;100.00;99201.73;4274634;81;21028;-85
2022/11/01 09:37:18;;;;;;;43.20;25.70;;;;;;;10.56;100.00;99194.27;4276647;81;21615;-86
2022/11/01 09:43:39;;;;;;;42.65;26.40;;;;;;;10.70;100.00;99212.83;4284293;78;21654;-85
2022/11/01 09:50:07;;;;;;;34.30;23.38;;;;;;;10.82;100.00;99193.45;4278865;81;21107;-85
2022/11/01 09:56:30;;;;;;;41.70;26.12;;;;;;;10.97;100.00;99183.67;4268870;81;21011;-85
2022/11/01 10:10:16;;;;;;;44.85;26.70;;;;;;;11.38;100.00;99198.81;4366178;81;21460;-85
2022/11/01 10:23:52;;;;;;;41.98;27.73;;;;;;;11.80;100.00;99209.67;4264013;83;20999;-85
2022/11/01 10:30:19;;;;;;;40.90;26.65;;;;;;;11.94;100.00;99195.29;4241219;81;21073;-86
2022/11/01 10:36:39;;;;;;;39.83;25.45;;;;;;;12.20;100.00;99200.02;4273951;81;20993;-84
2022/11/01 10:49:29;;;;;;;35.37;24.60;;;;;;;13.39;100.00;99206.02;4287983;80;21076;-84
2022/11/01 10:56:03;;;;;;;35.17;22.58;;;;;;;13.52;100.00;99192.09;4112014;84;21007;-85
2022/11/01 11:02:13;;;;;;;34.35;22.60;;;;;;;13.81;100.00;99186.24;4241534;81;21796;-86
2022/11/01 11:14:41;;;;;;;31.45;20.55;;;;;;;14.26;100.00;99172.34;4366332;81;21570;-85
2022/11/01 11:21:05;;;;;;;34.83;21.73;;;;;;;14.31;100.00;99163.69;4293585;81;21023;-86
2022/11/01 11:27:29;;;;;;;31.55;21.05;;;;;;;14.36;100.00;99157.75;4218780;81;81843;-93
2022/11/01 11:33:33;;;;;;;37.15;22.87;;;;;;;14.23;100.00;99159.91;4122916;85;21061;-94
2022/11/01 11:39:37;;;;;;;33.10;22.48;;;;;;;14.17;100.00;99158.16;4137230;83;21037;-92
2022/11/01 11:45:38;;;;;;;30.55;20.77;;;;;;;14.11;100.00;99159.13;4110571;85;21909;-93
2022/11/01 11:51:45;;;;;;;35.00;22.70;;;;;;;13.98;100.00;99148.92;4041307;85;21049;-95
2022/11/01 11:57:53;;;;;;;32.17;21.90;;;;;;;13.81;100.00;99155.98;4115289;85;21133;-92
2022/11/01 12:04:01;;;;;;;38.70;23.35;;;;;;;13.78;100.00;99156.00;4150079;84;21058;-92
2022/11/01 12:10:09;;;;;;;31.97;23.05;;;;;;;13.78;100.00;99151.88;4090965;85;21085;-92
2022/11/01 12:16:18;;;;;;;32.67;22.50;;;;;;;13.77;100.00;99140.66;4118319;85;21705;-93
2022/11/01 12:22:22;;;;;;;31.35;19.57;;;;;;;13.84;100.00;99133.79;4083733;85;21125;-93
2022/11/01 12:28:49;;;;;;;35.00;20.05;;;;;;;13.96;100.00;99143.02;4122566;85;21118;-93
2022/11/01 12:34:54;;;;;;;32.93;21.27;;;;;;;13.98;100.00;99135.16;4111483;85;21156;-93
2022/11/01 12:41:06;;;;;;;27.85;19.52;;;;;;;14.05;100.00;99137.90;4115657;85;21019;-91
2022/11/01 12:47:47;;;;;;;30.27;20.88;;;;;;;14.23;100.00;99137.30;4108060;85;22072;-92
2022/11/01 12:54:25;;;;;;;31.23;19.52;;;;;;;14.23;100.00;99149.09;4137755;85;21017;-90
2022/11/01 13:00:38;;;;;;;26.70;19.10;;;;;;;14.22;100.00;99145.35;4132621;85;21087;-92
2022/11/01 13:07:13;;;;;;;29.00;18.98;;;;;;;14.22;100.00;99141.83;4134352;85;21077;-92
2022/11/01 13:13:43;;;;;;;27.75;18.85;;;;;;;14.29;100.00;99144.59;4129620;85;21599;-93
2022/11/01 13:20:05;;;;;;;28.83;18.42;;;;;;;14.35;100.00;99139.67;4116877;85;21042;-93
2022/11/01 13:26:19;;;;;;;28.20;17.17;;;;;;;14.43;100.00;99140.44;4133879;85;21093;-92
2022/11/01 13:32:54;;;;;;;25.82;15.68;;;;;;;14.53;99.72;99143.19;4128062;85;21061;-93
2022/11/01 13:39:36;;;;;;;17.50;9.68;;;;;;;14.63;99.86;99149.25;4124416;85;21036;-93
2022/11/01 13:46:26;;;;;;;13.08;7.22;;;;;;;14.73;99.39;99159.46;4137525;83;21135;-92
2022/11/01 13:52:32;;;;;;;12.30;7.03;;;;;;;14.84;98.05;99160.22;4133620;85;21606;-92
2022/11/01 13:58:35;;;;;;;10.90;6.22;;;;;;;14.88;97.57;99158.80;4121828;83;21508;-91
2022/11/01 14:04:37;;;;;;;9.90;6.65;;;;;;;14.87;96.85;99158.62;4121911;85;21068;-93
2022/11/01 14:10:46;;;;;;;12.30;6.90;;;;;;;14.85;96.81;99161.78;4123938;85;21615;-93
2022/11/01 14:16:52;;;;;;;14.20;6.78;;;;;;;14.83;96.29;99173.78;4124313;85;21628;-93
2022/11/01 14:22:57;;;;;;;10.18;7.45;;;;;;;14.73;95.67;99178.75;4127767;85;21083;-92
2022/11/01 14:29:01;;;;;;;9.83;6.62;;;;;;;14.59;95.25;99190.39;4107448;84;21061;-92
2022/11/01 14:35:17;;;;;;;14.38;7.17;;;;;;;14.41;95.07;99194.54;4072211;85;21080;-91
2022/11/01 14:41:21;;;;;;;18.87;8.33;;;;;;;14.24;95.10;99195.34;3983510;87;21101;-92
2022/11/01 14:47:37;;;;;;;15.55;7.22;;;;;;;14.05;95.09;99201.20;4032147;86;21112;-93
2022/11/01 14:53:40;;;;;;;13.30;7.20;;;;;;;13.89;95.17;99211.22;4041620;86;21052;-90
2022/11/01 14:59:41;;;;;;;12.25;7.83;;;;;;;13.75;95.18;99218.69;4040292;86;21112;-92
2022/11/01 15:05:47;;;;;;;14.95;7.62;;;;;;;13.56;95.16;99228.05;4091149;85;22305;-93
2022/11/01 15:11:52;;;;;;;15.63;8.50;;;;;;;13.14;95.44;99216.13;4099532;85;21101;-92
2022/11/01 15:18:01;;;;;;;16.15;9.03;;;;;;;13.14;95.44;99216.13;4044109;86;21573;-90
2022/11/01 15:24:06;;;;;;;15.50;9.10;;;;;;;13.10;95.46;99231.23;4029095;86;21076;-89
2022/11/01 15:30:30;;;;;;;15.40;8.85;;;;;;;12.94;95.57;99241.70;4036301;86;21149;-93
2022/11/01 15:36:36;;;;;;;15.60;9.55;;;;;;;12.82;95.73;99244.78;4032249;86;21774;-92
2022/11/01 15:42:37;;;;;;;17.02;10.20;;;;;;;12.68;95.81;99256.45;4041251;86;21057;-92
2022/11/01 15:48:39;;;;;;;16.40;10.60;;;;;;;12.57;95.94;99256.20;4038807;86;21675;-91
2022/11/01 15:54:49;;;;;;;15.40;10.45;;;;;;;12.46;96.12;99258.07;4025342;86;21135;-92
2022/11/01 16:00:56;;;;;;;20.80;12.20;;;;;;;12.32;96.24;99257.36;4033508;86;21148;-92
2022/11/01 16:07:05;;;;;;;17.47;11.67;;;;;;;12.21;96.43;99246.10;4036184;86;21084;-93
2022/11/01 16:13:12;;;;;;;19.80;11.53;;;;;;;12.12;96.61;99242.29;4039888;86;21143;-93
2022/11/01 16:19:50;;;;;;;20.88;12.25;;;;;;;11.95;96.70;99256.64;4046866;83;73710;-85
2022/11/01 16:26:02;;;;;;;17.20;11.53;;;;;;;11.83;96.96;99259.66;4067486;85;21024;-86
2022/11/01 16:32:12;;;;;;;25.02;14.83;;;;;;;11.69;97.10;99266.38;4070527;84;21058;-85
2022/11/01 16:38:38;;;;;;;22.93;14.63;;;;;;;11.57;97.40;99269.92;4061192;85;21105;-86
2022/11/01 16:44:39;;;;;;;22.22;13.32;;;;;;;11.49;97.61;99281.39;4056994;85;21109;-85
2022/11/01 16:50:46;;;;;;;29.85;15.65;;;;;;;11.36;97.91;99292.38;4054783;85;21042;-85
2022/11/01 16:56:57;;;;;;;22.13;13.05;;;;;;;11.28;98.05;99292.65;4050322;85;21070;-85
2022/11/01 17:03:31;;;;;;;21.60;13.45;;;;;;;11.16;98.36;99299.17;4066137;85;21014;-85
2022/11/01 17:09:34;;;;;;;22.62;12.65;;;;;;;11.03;98.52;99312.88;4160196;85;21008;-85
2022/11/01 17:15:49;;;;;;;24.07;13.08;;;;;;;10.91;98.68;99318.58;4069740;84;21059;-85
2022/11/01 17:21:51;;;;;;;19.10;12.20;;;;;;;10.80;99.36;99321.73;4081810;84;21573;-84
2022/11/01 17:28:02;;;;;;;21.95;12.30;;;;;;;10.75;99.44;99305.05;4098576;84;21101;-85
2022/11/01 17:34:07;;;;;;;19.07;13.58;;;;;;;10.65;99.64;99318.55;4061536;84;21076;-86
2022/11/01 17:40:24;;;;;;;27.52;15.80;;;;;;;10.56;99.80;99330.34;4095311;84;21073;-85
2022/11/01 17:46:29;;;;;;;32.67;19.37;;;;;;;10.48;100.00;99333.54;4101457;84;21014;-85
2022/11/01 17:52:32;;;;;;;36.23;18.98;;;;;;;10.37;100.00;99335.30;4098833;87;21526;-85
2022/11/01 17:58:43;;;;;;;30.62;18.07;;;;;;;10.30;100.00;99342.04;4070237;85;21033;-85
2022/11/01 18:04:49;;;;;;;33.70;18.48;;;;;;;10.20;100.00;99344.56;4040496;86;21017;-85
2022/11/01 18:11:12;;;;;;;36.85;23.67;;;;;;;10.08;100.00;99346.11;4098506;84;21089;-85
2022/11/01 18:17:33;;;;;;;35.28;23.35;;;;;;;10.00;100.00;99356.10;4093553;84;20982;-85
2022/11/01 18:23:39;;;;;;;33.02;20.88;;;;;;;9.91;100.00;99361.02;4071298;84;21165;-85
2022/11/01 18:29:44;;;;;;;32.85;20.75;;;;;;;9.80;100.00;99353.74;4103980;85;20992;-85
2022/11/01 18:36:02;;;;;;;43.10;24.00;;;;;;;9.62;100.00;99353.38;4019603;85;21010;-86
2022/11/01 18:42:11;;;;;;;43.63;24.52;;;;;;;9.55;100.00;99364.19;4049045;87;21031;-85
2022/11/01 18:48:23;;;;;;;42.25;26.97;;;;;;;9.46;100.00;99369.84;4056252;85;21030;-86
2022/11/01 18:54:31;;;;;;;47.05;27.30;;;;;;;9.35;100.00;99368.02;4060761;86;22063;-85
2022/11/01 19:00:33;;;;;;;41.83;26.05;;;;;;;9.25;100.00;99373.50;4057071;86;21058;-85
2022/11/01 19:06:35;;;;;;;45.40;25.65;;;;;;;9.20;100.00;99383.89;4044582;85;20994;-85
2022/11/01 19:12:40;;;;;;;38.60;24.10;;;;;;;9.19;100.00;99395.39;4144614;85;21850;-85
2022/11/01 19:18:42;;;;;;;41.40;21.82;;;;;;;9.06;100.00;99389.03;4028571;85;21056;-85
2022/11/01 19:24:45;;;;;;;31.82;20.52;;;;;;;8.97;100.00;99393.31;4079810;85;21127;-85
2022/11/01 19:30:49;;;;;;;32.50;20.68;;;;;;;8.95;100.00;99401.08;4088496;85;21103;-85
2022/11/01 19:36:53;;;;;;;32.63;20.72;;;;;;;8.99;100.00;99400.58;4086141;85;20992;-86
2022/11/01 19:42:58;;;;;;;38.98;22.05;;;;;;;8.85;100.00;99404.34;3981915;83;9999971;-85
2022/11/01 19:49:01;;;;;;;39.73;23.27;;;;;;;8.84;100.00;99404.13;4090162;87;21056;-85
2022/11/01 19:55:42;;;;;;;39.83;22.35;;;;;;;8.90;100.00;99398.61;4032604;85;21426;-85
2022/11/01 20:01:45;;;;;;;40.15;22.52;;;;;;;9.00;100.00;99406.28;4070472;85;20984;-85
2022/11/01 20:08:35;;;;;;;33.30;20.90;;;;;;;9.11;100.00;99414.13;4032375;85;21587;-85
2022/11/01 20:14:37;;;;;;;37.45;21.50;;;;;;;9.20;100.00;99411.21;4031221;85;21011;-86
2022/11/01 20:20:42;;;;;;;42.13;21.45;;;;;;;9.25;100.00;99416.41;4073441;85;21565;-85
2022/11/01 20:27:17;;;;;;;37.57;20.63;;;;;;;9.30;100.00;99429.20;4091853;85;21015;-85
2022/11/01 20:33:24;;;;;;;36.80;21.42;;;;;;;9.37;100.00;99429.37;4092195;86;21010;-86
2022/11/01 20:39:31;;;;;;;33.48;21.40;;;;;;;9.43;100.00;99436.71;4079680;85;21019;-85
2022/11/01 20:45:33;;;;;;;35.98;22.22;;;;;;;9.46;100.00;99446.36;4070665;85;21036;-85
2022/11/01 20:51:35;;;;;;;35.90;22.40;;;;;;;9.50;100.00;99454.08;4081636;85;22038;-85
2022/11/01 20:57:36;;;;;;;37.93;23.00;;;;;;;9.45;100.00;99443.98;4094899;85;21039;-86
2022/11/01 21:03:38;;;;;;;44.73;24.43;;;;;;;9.30;100.00;99444.83;4092863;86;21036;-85
2022/11/01 21:09:46;;;;;;;39.67;22.93;;;;;;;9.19;100.00;99449.24;4071855;85;21005;-85
2022/11/01 21:15:47;;;;;;;42.55;23.67;;;;;;;9.15;100.00;99447.79;4076688;85;21603;-85
2022/11/01 21:21:57;;;;;;;43.23;25.43;;;;;;;9.13;100.00;99445.20;4071503;85;21063;-86
2022/11/01 21:28:08;;;;;;;38.92;24.52;;;;;;;9.14;100.00;99448.14;4050201;85;21934;-85
2022/11/01 21:34:29;;;;;;;37.80;22.62;;;;;;;9.08;100.00;99452.30;4055179;88;21053;-85
2022/11/01 21:40:37;;;;;;;33.78;20.15;;;;;;;9.07;100.00;99457.52;3939490;84;10000392;-85
2022/11/01 21:46:39;;;;;;;37.15;21.62;;;;;;;9.04;100.00;99459.59;4048275;85;21110;-85
2022/11/01 21:52:46;;;;;;;38.33;23.70;;;;;;;9.00;100.00;99470.45;4096701;85;21015;-85
2022/11/01 21:58:51;;;;;;;;;;;;;;;8.90;100.00;99468.23;4091603;85;21031;-85
2022/11/01 22:04:54;;;;;;;42.25;24.27;;;;;;;8.87;100.00;99464.84;4056195;85;20125;-85
2022/11/01 22:10:55;;;;;;;44.53;26.23;;;;;;;8.84;100.00;99462.02;3947371;88;21067;-85
2022/11/01 22:16:59;;;;;;;45.43;25.40;;;;;;;8.81;100.00;99471.72;4053706;85;21011;-85
2022/11/01 22:23:02;;;;;;;38.70;23.22;;;;;;;8.78;100.00;99472.98;4069156;84;21043;-85
2022/11/01 22:29:05;;;;;;;48.08;26.17;;;;;;;8.78;100.00;99468.33;4059729;85;21026;-85
2022/11/01 22:35:07;;;;;;;53.38;27.80;;;;;;;8.84;100.00;99466.12;4047308;85;21086;-85
2022/11/01 22:41:30;;;;;;;46.48;25.77;;;;;;;8.95;100.00;99467.98;4047179;85;21059;-85
2022/11/01 22:47:35;;;;;;;47.93;26.07;;;;;;;9.07;100.00;99465.71;4088891;85;21066;-85
2022/11/01 22:53:37;;;;;;;43.80;26.02;;;;;;;9.13;100.00;99465.69;4084326;85;21133;-85
2022/11/01 22:59:52;;;;;;;47.85;27.25;;;;;;;9.23;100.00;99465.13;4053281;85;21083;-84
2022/11/01 23:06:03;;;;;;;54.55;28.60;;;;;;;9.34;100.00;99463.44;4055945;85;21030;-85
2022/11/01 23:18:37;;;;;;;44.42;23.30;;;;;;;9.58;100.00;99461.86;4058466;85;20991;-85
2022/11/01 23:24:39;;;;;;;44.13;26.10;;;;;;;9.70;100.00;99458.99;4078007;84;20999;-85
2022/11/01 23:30:51;;;;;;;46.40;24.37;;;;;;;9.75;100.00;99457.35;4081411;85;21075;-85
2022/11/01 23:37:10;;;;;;;40.43;22.62;;;;;;;9.80;100.00;99460.37;4082041;87;21073;-85
2022/11/01 23:43:24;;;;;;;44.95;24.10;;;;;;;9.85;100.00;99455.40;4078079;85;21126;-85
2022/11/01 23:49:30;;;;;;;35.00;21.82;;;;;;;9.89;100.00;99454.11;4084085;85;22278;-85
2022/11/01 23:55:39;;;;;;;36.17;21.67;;;;;;;9.89;100.00;99452.75;4082297;85;21482;-85
